Time;durP1;ratioP1;P1;durP2;ratioP2;P2;SDS_P1;SDS_P2;PMS_P1;PMS_P2;Temp;Humidity;BMP_temperature;BMP_pressure;BME280_temperature;BME280_humidity;BME280_pressure;Samples;Min_cycle;Max_cycle;Signal;HPM_P1;HPM_P2
2022/01/27 00:06:16;;;;;;;39.22;26.30;;;;;;;;;;4817284;29;20163;-84
2022/01/27 00:10:44;;;;;;;40.90;21.38;;;;;;;;;;4805708;29;20058;-84
2022/01/27 00:14:44;;;;;;;47.03;24.85;;;;;;;;;;4780776;29;20058;-84
2022/01/27 00:17:31;;;;;;;32.72;21.98;;;;;;;;;;4833547;29;20061;-84
2022/01/27 00:21:38;;;;;;;44.95;22.67;;;;;;;;;;4801697;29;20062;-84
2022/01/27 00:24:54;;;;;;;48.20;21.80;;;;;;;;;;4799092;29;20055;-83
2022/01/27 00:31:42;;;;;;;47.05;24.80;;;;;;;;;;4766036;29;20514;-84
2022/01/27 00:35:05;;;;;;;40.85;22.23;;;;;;;;;;4758241;29;20401;-84
2022/01/27 00:38:20;;;;;;;47.45;25.63;;;;;;;;;;4797555;29;20068;-84
2022/01/27 00:41:02;;;;;;;40.20;21.23;;;;;;;;;;4798329;29;20058;-84
2022/01/27 00:43:45;;;;;;;41.92;24.95;;;;;;;;;;4787738;29;20050;-84
2022/01/27 00:46:53;;;;;;;45.95;25.92;;;;;;;;;;4817418;29;20568;-83
2022/01/27 00:49:39;;;;;;;50.85;22.05;;;;;;;;;;4802744;29;20066;-84
2022/01/27 00:52:59;;;;;;;44.45;25.60;;;;;;;;;;4823758;29;20054;-84
2022/01/27 00:56:10;;;;;;;33.92;21.60;;;;;;;;;;4836377;29;20058;-84
2022/01/27 01:03:11;;;;;;;33.10;23.30;;;;;;;;;;4833349;29;20049;-84
2022/01/27 01:13:30;;;;;;;40.55;21.13;;;;;;;;;;4806327;29;20508;-84
2022/01/27 01:20:08;;;;;;;46.28;19.48;;;;;;;;;;4790011;29;20513;-84
2022/01/27 01:33:59;;;;;;;33.42;21.25;;;;;;;;;;4806979;29;20055;-84
2022/01/27 01:37:20;;;;;;;38.67;19.58;;;;;;;;;;4781864;29;20052;-84
2022/01/27 01:40:31;;;;;;;42.60;23.05;;;;;;;;;;4781922;29;20043;-84
2022/01/27 01:43:35;;;;;;;;;;;;;;;;;;;;;
2022/01/27 01:46:29;;;;;;;40.22;21.65;;;;;;;;;;4774490;30;20055;-84
2022/01/27 01:49:26;;;;;;;;;;;;;;;;;;;;;
2022/01/27 01:52:39;;;;;;;44.85;20.23;;;;;;;;;;4755183;30;20070;-84
2022/01/27 01:56:00;;;;;;;45.67;23.40;;;;;;;;;;4765275;29;20059;-84
2022/01/27 01:59:31;;;;;;;43.10;19.25;;;;;;;;;;4791782;29;20051;-83
2022/01/27 02:03:14;;;;;;;55.75;26.52;;;;;;;;;;4772447;29;20051;-84
2022/01/27 02:10:07;;;;;;;40.20;23.15;;;;;;;;;;4772718;30;20059;-84
2022/01/27 02:21:04;;;;;;;35.85;19.20;;;;;;;;;;4762908;29;20072;-84
2022/01/27 02:29:01;;;;;;;40.80;22.17;;;;;;;;;;4714421;30;20812;-83
2022/01/27 02:42:12;;;;;;;43.50;23.25;;;;;;;;;;4709111;30;20067;-83
2022/01/27 02:50:25;;;;;;;34.05;18.33;;;;;;;;;;4736847;30;20052;-84
2022/01/27 02:54:28;;;;;;;34.45;21.80;;;;;;;;;;4742636;30;20075;-84
2022/01/27 02:58:26;;;;;;;37.75;22.20;;;;;;;;;;4742193;29;20067;-84
2022/01/27 03:02:29;;;;;;;48.95;25.10;;;;;;;;;;4722866;30;20064;-84
2022/01/27 03:06:47;;;;;;;39.30;21.58;;;;;;;;;;4708592;30;20194;-84
2022/01/27 03:19:34;;;;;;;43.38;22.13;;;;;;;;;;4768161;29;20074;-83
2022/01/27 03:23:11;;;;;;;;;;;;;;;;;;;;;
2022/01/27 03:32:48;;;;;;;;;;;;;;;;;;;;;
2022/01/27 03:36:58;;;;;;;40.92;20.13;;;;;;;;;;4673945;30;20049;-83
2022/01/27 04:16:36;;;;;;;;;;;;;;;;;;;;;
2022/01/27 04:24:49;;;;;;;27.45;16.60;;;;;;;;;;4716566;30;20068;-83
2022/01/27 04:47:04;;;;;;;49.65;23.50;;;;;;;;;;4705667;30;20152;-84
2022/01/27 05:07:22;;;;;;;36.53;16.23;;;;;;;;;;4728531;30;20083;-86
2022/01/27 05:09:58;;;;;;;36.67;14.33;;;;;;;;;;4734623;30;20059;-86
2022/01/27 05:12:44;;;;;;;24.83;15.13;;;;;;;;;;4809624;29;20507;-86
2022/01/27 05:15:12;;;;;;;38.88;18.38;;;;;;;;;;4821354;29;20069;-87
2022/01/27 05:17:40;;;;;;;29.83;17.75;;;;;;;;;;4816388;29;20050;-87
2022/01/27 05:20:09;;;;;;;36.33;21.40;;;;;;;;;;4799369;29;20050;-87
2022/01/27 05:22:37;;;;;;;40.80;18.42;;;;;;;;;;4837317;29;20424;-86
2022/01/27 05:25:09;;;;;;;34.60;19.17;;;;;;;;;;4837108;29;20068;-86
2022/01/27 05:27:37;;;;;;;43.30;20.02;;;;;;;;;;4825372;29;20065;-85
2022/01/27 05:30:06;;;;;;;35.83;16.17;;;;;;;;;;4833324;29;20050;-86
2022/01/27 05:32:42;;;;;;;40.30;18.63;;;;;;;;;;4838161;29;20407;-85
2022/01/27 05:35:20;;;;;;;40.10;23.95;;;;;;;;;;4826312;29;20056;-86
2022/01/27 05:37:49;;;;;;;42.90;18.92;;;;;;;;;;4833848;29;20687;-86
2022/01/27 05:40:18;;;;;;;43.13;19.60;;;;;;;;;;4819897;29;20089;-87
2022/01/27 05:42:46;;;;;;;35.75;19.05;;;;;;;;;;4853702;29;20061;-86
2022/01/27 05:45:17;;;;;;;35.17;19.25;;;;;;;;;;4839998;29;20049;-86
2022/01/27 05:47:45;;;;;;;;;;;;;;;;;;4825204;29;20053;-86
2022/01/27 05:50:14;;;;;;;32.83;16.85;;;;;;;;;;4840443;29;19927;-85
2022/01/27 05:52:42;;;;;;;37.55;18.70;;;;;;;;;;4811892;29;20053;-86
2022/01/27 05:55:11;;;;;;;39.63;16.58;;;;;;;;;;4845810;29;20615;-84
2022/01/27 05:58:00;;;;;;;36.20;16.67;;;;;;;;;;4835627;29;20053;-85
2022/01/27 06:00:34;;;;;;;42.30;20.88;;;;;;;;;;4789128;29;20046;-86
2022/01/27 06:03:02;;;;;;;35.22;22.15;;;;;;;;;;4820927;29;20094;-85
2022/01/27 06:05:36;;;;;;;27.55;14.75;;;;;;;;;;4796341;29;20140;-85
2022/01/27 06:08:05;;;;;;;26.95;18.20;;;;;;;;;;4802989;29;20046;-85
2022/01/27 06:10:33;;;;;;;26.08;16.92;;;;;;;;;;4820203;29;20080;-85
2022/01/27 06:13:17;;;;;;;32.80;16.35;;;;;;;;;;4833982;29;20138;-84
2022/01/27 06:15:51;;;;;;;40.88;23.35;;;;;;;;;;4819734;29;20042;-82
2022/01/27 06:18:23;;;;;;;32.28;17.10;;;;;;;;;;4819973;29;20061;-84
2022/01/27 06:21:10;;;;;;;30.33;16.92;;;;;;;;;;4803304;29;20050;-84
2022/01/27 06:24:12;;;;;;;34.08;19.00;;;;;;;;;;4806964;29;20513;-83
2022/01/27 06:26:46;;;;;;;34.42;20.85;;;;;;;;;;4820663;29;20415;-86
2022/01/27 06:29:37;;;;;;;31.70;14.82;;;;;;;;;;4837271;29;20046;-85
2022/01/27 06:32:06;;;;;;;32.22;17.38;;;;;;;;;;4803918;29;20049;-87
2022/01/27 06:34:34;;;;;;;31.60;16.40;;;;;;;;;;4821922;29;20054;-87
2022/01/27 06:37:12;;;;;;;38.65;16.38;;;;;;;;;;4803488;29;20519;-88
2022/01/27 06:39:46;;;;;;;24.52;15.63;;;;;;;;;;4806533;29;20043;-86
2022/01/27 06:42:20;;;;;;;35.45;18.70;;;;;;;;;;4792085;29;20058;-87
2022/01/27 06:45:32;;;;;;;31.58;17.85;;;;;;;;;;4807409;29;20508;-86
2022/01/27 06:48:12;;;;;;;24.33;16.00;;;;;;;;;;4808077;29;20042;-87
2022/01/27 06:50:52;;;;;;;27.88;16.08;;;;;;;;;;4793619;29;20424;-88
2022/01/27 06:53:27;;;;;;;32.35;19.70;;;;;;;;;;4807250;29;20058;-88
2022/01/27 06:55:56;;;;;;;36.70;15.23;;;;;;;;;;4792119;29;20069;-86
2022/01/27 06:58:27;;;;;;;33.20;18.63;;;;;;;;;;4807347;29;20070;-87
2022/01/27 07:01:14;;;;;;;34.10;18.55;;;;;;;;;;4796530;29;20409;-87
2022/01/27 07:03:47;;;;;;;37.40;19.25;;;;;;;;;;4812202;29;20495;-87
2022/01/27 07:06:36;;;;;;;35.60;19.75;;;;;;;;;;4812130;29;20054;-89
2022/01/27 07:12:31;;;;;;;28.42;16.50;;;;;;;;;;4971653;23;20064;-86
2022/01/27 09:37:14;;;;;;;19.52;11.70;;;;;;;;;;4776223;29;20042;-85
2022/01/27 09:41:19;;;;;;;14.50;11.00;;;;;;;;;;4808788;29;20048;-85
2022/01/27 09:44:23;;;;;;;16.48;13.15;;;;;;;;;;4797119;29;20160;-86
2022/01/27 09:47:11;;;;;;;24.73;17.08;;;;;;;;;;4812485;29;20057;-85
2022/01/27 09:49:52;;;;;;;51.92;28.17;;;;;;;;;;4796883;29;20069;-85
2022/01/27 09:52:29;;;;;;;25.80;17.90;;;;;;;;;;4799633;29;20059;-85
2022/01/27 09:55:02;;;;;;;17.27;11.15;;;;;;;;;;4799821;29;20089;-85
2022/01/27 09:57:32;;;;;;;16.60;12.35;;;;;;;;;;4799470;29;20061;-85
2022/01/27 10:00:04;;;;;;;19.77;10.95;;;;;;;;;;4784661;29;20046;-86
2022/01/27 10:03:00;;;;;;;17.73;9.23;;;;;;;;;;4801144;29;20519;-85
2022/01/27 10:05:30;;;;;;;13.60;6.90;;;;;;;;;;4784890;29;20077;-85
2022/01/27 10:08:22;;;;;;;21.13;9.50;;;;;;;;;;4795065;29;20061;-85
2022/01/27 10:10:59;;;;;;;13.48;9.15;;;;;;;;;;4804907;29;20432;-85
2022/01/27 10:13:46;;;;;;;10.00;7.20;;;;;;;;;;4820990;29;20128;-85
2022/01/27 10:16:42;;;;;;;13.40;10.30;;;;;;;;;;4810801;29;20126;-84
2022/01/27 10:20:21;;;;;;;14.32;10.63;;;;;;;;;;4836043;29;20058;-85
2022/01/27 10:23:04;;;;;;;6.65;3.67;;;;;;;;;;4818342;29;20066;-85
2022/01/27 10:25:57;;;;;;;8.93;5.82;;;;;;;;;;4823380;29;20041;-85
2022/01/27 10:28:40;;;;;;;5.82;4.57;;;;;;;;;;4806394;29;20598;-85
2022/01/27 10:39:06;;;;;;;2.80;2.60;;;;;;;;;;4824630;29;20049;-85
2022/01/27 10:42:31;;;;;;;5.47;3.05;;;;;;;;;;4850000;24;20140;-83
2022/01/27 10:45:41;;;;;;;;;;;;;;;;;;;;;
2022/01/27 10:49:10;;;;;;;4.93;4.13;;;;;;;;;;4822692;29;20041;-85
2022/01/27 10:51:47;;;;;;;4.18;3.78;;;;;;;;;;4854020;29;20065;-84
2022/01/27 10:59:37;;;;;;;4.00;3.25;;;;;;;;;;4692189;30;20056;-86
2022/01/27 11:07:29;;;;;;;3.60;3.30;;;;;;;;;;4643847;30;20057;-85
2022/01/27 11:13:46;;;;;;;3.83;3.40;;;;;;;;;;4869105;24;20058;-84
2022/01/27 11:21:23;;;;;;;2.83;2.55;;;;;;;;;;4793930;29;20520;-85
2022/01/27 11:28:42;;;;;;;2.88;2.60;;;;;;;;;;4799598;29;20055;-83
2022/01/27 11:31:24;;;;;;;10.48;2.70;;;;;;;;;;4803034;29;20134;-82
2022/01/27 11:34:04;;;;;;;3.45;2.10;;;;;;;;;;4763505;29;20054;-83
2022/01/27 11:36:38;;;;;;;3.00;2.78;;;;;;;;;;4786797;29;20058;-84
2022/01/27 11:39:17;;;;;;;3.05;1.92;;;;;;;;;;4789403;29;20073;-85
2022/01/27 11:41:58;;;;;;;3.10;1.98;;;;;;;;;;4789512;29;20058;-86
2022/01/27 11:44:28;;;;;;;1.77;1.67;;;;;;;;;;4818497;29;20058;-84
2022/01/27 11:47:13;;;;;;;3.40;2.95;;;;;;;;;;4786874;29;20069;-84
2022/01/27 11:53:15;;;;;;;2.17;2.05;;;;;;;;;;4781355;29;20561;-84
2022/01/27 11:55:53;;;;;;;3.42;3.13;;;;;;;;;;4758514;29;20051;-84
2022/01/27 11:58:22;;;;;;;2.55;2.35;;;;;;;;;;4779652;29;20061;-83
2022/01/27 12:01:11;;;;;;;2.70;2.03;;;;;;;;;;4779126;29;20043;-84
2022/01/27 12:04:33;;;;;;;3.78;2.35;;;;;;;;;;4731373;30;20064;-84
2022/01/27 12:07:14;;;;;;;7.63;2.83;;;;;;;;;;4774949;29;20050;-84
2022/01/27 12:09:42;;;;;;;3.55;3.30;;;;;;;;;;4779716;29;20420;-81
2022/01/27 12:12:27;;;;;;;3.20;2.75;;;;;;;;;;4829507;29;20783;-83
2022/01/27 12:15:01;;;;;;;5.85;2.60;;;;;;;;;;4855802;29;20242;-82
2022/01/27 12:17:40;;;;;;;5.30;3.10;;;;;;;;;;4846879;29;20857;-82
2022/01/27 12:20:09;;;;;;;5.40;3.05;;;;;;;;;;4846825;29;20052;-83
2022/01/27 12:22:43;;;;;;;2.33;2.13;;;;;;;;;;4864866;29;20050;-80
2022/01/27 12:25:12;;;;;;;3.78;2.90;;;;;;;;;;4832136;29;20056;-79
2022/01/27 12:27:41;;;;;;;4.57;3.55;;;;;;;;;;4845574;29;20746;-79
2022/01/27 12:30:32;;;;;;;2.42;2.22;;;;;;;;;;4860528;29;20507;-81
2022/01/27 12:32:59;;;;;;;3.72;2.42;;;;;;;;;;4863306;29;20041;-84
2022/01/27 12:36:13;;;;;;;4.07;2.70;;;;;;;;;;4807803;29;20057;-85
2022/01/27 12:38:39;;;;;;;2.80;2.55;;;;;;;;;;4775101;29;20488;-87
2022/01/27 12:41:07;;;;;;;3.90;3.42;;;;;;;;;;4771714;29;20051;-85
2022/01/27 12:43:58;;;;;;;2.95;2.75;;;;;;;;;;4784237;29;20060;-85
2022/01/27 12:46:27;;;;;;;4.05;3.75;;;;;;;;;;4782330;29;20522;-84
2022/01/27 12:48:55;;;;;;;4.45;4.05;;;;;;;;;;4769952;29;20436;-85
2022/01/27 12:51:48;;;;;;;3.50;3.15;;;;;;;;;;4785624;29;20081;-84
2022/01/27 12:54:25;;;;;;;4.32;3.35;;;;;;;;;;4771142;29;20067;-84
2022/01/27 12:56:53;;;;;;;5.93;4.72;;;;;;;;;;4764367;29;20051;-85
2022/01/27 12:59:21;;;;;;;4.40;3.72;;;;;;;;;;4750865;30;20420;-84
2022/01/27 13:01:56;;;;;;;4.07;3.78;;;;;;;;;;4772698;29;20109;-83
2022/01/27 13:04:26;;;;;;;6.03;4.28;;;;;;;;;;4785132;29;20047;-84
2022/01/27 13:06:55;;;;;;;7.13;5.75;;;;;;;;;;4789332;29;20055;-85
2022/01/27 13:09:23;;;;;;;13.75;4.40;;;;;;;;;;4828368;29;20394;-83
2022/01/27 13:11:53;;;;;;;5.45;4.95;;;;;;;;;;4846077;29;20487;-86
2022/01/27 13:14:21;;;;;;;6.95;4.80;;;;;;;;;;4828506;29;20057;-83
2022/01/27 13:16:55;;;;;;;3.90;3.58;;;;;;;;;;4847156;29;20049;-82
2022/01/27 13:19:38;;;;;;;4.93;4.47;;;;;;;;;;4844386;29;20049;-83
2022/01/27 13:22:09;;;;;;;7.13;6.40;;;;;;;;;;4862600;29;20050;-82
2022/01/27 13:24:49;;;;;;;5.75;5.25;;;;;;;;;;4860798;29;20050;-82
2022/01/27 13:27:17;;;;;;;5.47;4.72;;;;;;;;;;4863016;29;20053;-83
2022/01/27 13:29:46;;;;;;;8.07;5.65;;;;;;;;;;4847433;29;20048;-83
2022/01/27 13:32:15;;;;;;;10.25;8.52;;;;;;;;;;4864596;29;20049;-81
2022/01/27 13:34:47;;;;;;;6.18;5.20;;;;;;;;;;4846848;29;20061;-83
2022/01/27 13:37:26;;;;;;;8.55;5.88;;;;;;;;;;4845332;29;20049;-80
2022/01/27 13:42:23;;;;;;;6.10;4.82;;;;;;;;;;4860371;29;20794;-83
2022/01/27 13:44:53;;;;;;;8.43;6.03;;;;;;;;;;4813249;29;20061;-82
2022/01/27 13:47:33;;;;;;;6.80;5.40;;;;;;;;;;4846702;29;20053;-82
2022/01/27 13:50:12;;;;;;;6.88;6.22;;;;;;;;;;4845761;29;20065;-82
2022/01/27 13:52:47;;;;;;;6.88;5.85;;;;;;;;;;4848936;29;20042;-83
2022/01/27 13:55:22;;;;;;;5.03;3.78;;;;;;;;;;4862689;29;20045;-85
2022/01/27 13:57:59;;;;;;;7.85;6.10;;;;;;;;;;4843245;29;20061;-80
2022/01/27 14:00:40;;;;;;;11.02;8.98;;;;;;;;;;4859711;29;20269;-82
2022/01/27 14:03:10;;;;;;;8.65;5.97;;;;;;;;;;4863297;29;20061;-82
2022/01/27 14:05:39;;;;;;;11.07;8.88;;;;;;;;;;4845930;29;20057;-85
2022/01/27 14:08:07;;;;;;;11.40;6.70;;;;;;;;;;4849682;29;20049;-83
2022/01/27 14:10:41;;;;;;;10.85;8.25;;;;;;;;;;4862445;29;20049;-83
2022/01/27 14:13:17;;;;;;;8.18;6.60;;;;;;;;;;4861554;29;20060;-83
2022/01/27 14:15:54;;;;;;;11.75;9.48;;;;;;;;;;4844999;29;20045;-83
2022/01/27 14:18:29;;;;;;;9.85;7.40;;;;;;;;;;4844697;29;20049;-84
2022/01/27 14:21:08;;;;;;;14.13;7.68;;;;;;;;;;4843217;29;20911;-81
2022/01/27 14:26:23;;;;;;;16.40;11.02;;;;;;;;;;4847855;29;20049;-83
2022/01/27 14:28:52;;;;;;;16.00;9.63;;;;;;;;;;4830560;29;20060;-83
2022/01/27 14:31:21;;;;;;;11.85;9.73;;;;;;;;;;4845243;29;20072;-83
2022/01/27 14:33:49;;;;;;;10.05;8.20;;;;;;;;;;4863834;29;20087;-80
2022/01/27 14:36:18;;;;;;;16.58;10.38;;;;;;;;;;4845489;29;20052;-85
2022/01/27 14:38:47;;;;;;;10.05;7.72;;;;;;;;;;4863447;29;20052;-82
2022/01/27 14:41:16;;;;;;;12.75;9.20;;;;;;;;;;4847557;29;20056;-83
2022/01/27 14:43:44;;;;;;;8.88;7.97;;;;;;;;;;4861444;29;20057;-80
2022/01/27 14:46:26;;;;;;;10.07;8.52;;;;;;;;;;4862421;29;20059;-82
2022/01/27 14:48:58;;;;;;;12.73;8.43;;;;;;;;;;4862633;29;20060;-81
2022/01/27 14:51:28;;;;;;;10.30;7.63;;;;;;;;;;4861021;29;20475;-80
2022/01/27 14:53:56;;;;;;;10.60;8.48;;;;;;;;;;4862369;29;20060;-82
2022/01/27 14:56:24;;;;;;;9.95;7.45;;;;;;;;;;4831658;29;20038;-81
2022/01/27 14:58:52;;;;;;;12.50;9.80;;;;;;;;;;4845137;29;20057;-81
2022/01/27 15:01:21;;;;;;;13.77;8.85;;;;;;;;;;4859514;29;20045;-82
2022/01/27 15:03:49;;;;;;;19.85;14.65;;;;;;;;;;4845919;29;20053;-82
2022/01/27 15:06:18;;;;;;;14.82;10.98;;;;;;;;;;4847801;29;20699;-80
2022/01/27 15:08:46;;;;;;;13.70;10.20;;;;;;;;;;4845068;29;20423;-81
2022/01/27 15:11:14;;;;;;;10.95;8.60;;;;;;;;;;4866375;29;20523;-83
2022/01/27 15:13:44;;;;;;;16.83;11.50;;;;;;;;;;4846173;29;20566;-82
2022/01/27 15:19:31;;;;;;;12.65;9.73;;;;;;;;;;4864045;29;20057;-81
2022/01/27 15:21:57;;;;;;;12.70;9.50;;;;;;;;;;4849616;29;20044;-81
2022/01/27 15:24:25;;;;;;;20.83;15.60;;;;;;;;;;4864689;29;20041;-82
2022/01/27 15:26:53;;;;;;;13.50;7.55;;;;;;;;;;4850717;29;20050;-81
2022/01/27 15:29:22;;;;;;;10.77;7.32;;;;;;;;;;4862735;29;20348;-82
2022/01/27 15:31:52;;;;;;;16.08;10.30;;;;;;;;;;4848386;29;20084;-83
2022/01/27 15:34:28;;;;;;;21.00;13.77;;;;;;;;;;4820831;29;20494;-82
2022/01/27 15:37:01;;;;;;;15.95;9.73;;;;;;;;;;4847180;29;20053;-82
2022/01/27 15:39:29;;;;;;;12.38;9.23;;;;;;;;;;4865512;29;20403;-82
2022/01/27 15:41:57;;;;;;;13.85;10.52;;;;;;;;;;4867522;29;20056;-82
2022/01/27 15:44:25;;;;;;;14.07;9.95;;;;;;;;;;4863754;29;20041;-82
2022/01/27 15:46:53;;;;;;;11.90;10.13;;;;;;;;;;4863750;29;20053;-84
2022/01/27 15:49:22;;;;;;;18.10;9.90;;;;;;;;;;4848042;29;20053;-85
2022/01/27 15:51:51;;;;;;;15.38;10.32;;;;;;;;;;4861091;29;20057;-85
2022/01/27 15:54:19;;;;;;;17.55;12.32;;;;;;;;;;4848529;29;20067;-84
2022/01/27 15:56:47;;;;;;;12.35;8.30;;;;;;;;;;4846478;29;20047;-84
2022/01/27 15:59:15;;;;;;;13.05;9.63;;;;;;;;;;4865846;29;20052;-84
2022/01/27 16:01:43;;;;;;;16.92;10.07;;;;;;;;;;4864537;29;20053;-86
2022/01/27 16:04:12;;;;;;;11.02;9.35;;;;;;;;;;4849446;29;20100;-86
2022/01/27 16:06:43;;;;;;;13.60;6.47;;;;;;;;;;4842169;29;20500;-86
2022/01/27 16:09:12;;;;;;;16.15;10.93;;;;;;;;;;4864908;29;20475;-88
2022/01/27 16:11:40;;;;;;;16.23;9.02;;;;;;;;;;4833167;29;20404;-86
2022/01/27 16:14:08;;;;;;;13.10;9.15;;;;;;;;;;4862138;29;20070;-84
2022/01/27 16:16:36;;;;;;;15.90;8.73;;;;;;;;;;4848757;29;20045;-85
2022/01/27 16:19:04;;;;;;;14.05;9.02;;;;;;;;;;4849960;29;20056;-84
2022/01/27 16:21:32;;;;;;;6.78;5.07;;;;;;;;;;4847452;29;20041;-86
2022/01/27 16:24:01;;;;;;;13.45;9.13;;;;;;;;;;4816841;29;20045;-84
2022/01/27 16:26:29;;;;;;;11.68;10.45;;;;;;;;;;4863074;29;20049;-84
2022/01/27 16:28:58;;;;;;;14.73;9.75;;;;;;;;;;4864429;29;20051;-85
2022/01/27 16:31:26;;;;;;;20.38;9.88;;;;;;;;;;4866733;29;20052;-83
2022/01/27 16:33:55;;;;;;;10.68;7.32;;;;;;;;;;4865607;29;20050;-82
2022/01/27 16:36:23;;;;;;;4.82;4.43;;;;;;;;;;4847435;29;20049;-83
2022/01/27 16:38:52;;;;;;;10.40;8.13;;;;;;;;;;4865984;29;20053;-84
2022/01/27 16:41:20;;;;;;;16.15;9.05;;;;;;;;;;4858603;29;20056;-85
2022/01/27 16:43:49;;;;;;;15.23;7.03;;;;;;;;;;4847380;29;20781;-85
2022/01/27 16:46:17;;;;;;;15.43;9.13;;;;;;;;;;4849151;29;20132;-84
2022/01/27 16:48:46;;;;;;;13.82;9.85;;;;;;;;;;4846922;29;20071;-84
2022/01/27 16:51:14;;;;;;;10.00;4.75;;;;;;;;;;4865957;29;20052;-84
2022/01/27 16:53:42;;;;;;;9.55;7.05;;;;;;;;;;4833959;29;20060;-84
2022/01/27 16:56:10;;;;;;;11.02;8.10;;;;;;;;;;4844163;29;20056;-84
2022/01/27 16:58:38;;;;;;;10.85;9.73;;;;;;;;;;4864512;29;20064;-85
2022/01/27 17:01:06;;;;;;;14.20;8.32;;;;;;;;;;4865617;29;20056;-84
2022/01/27 17:03:34;;;;;;;16.15;9.95;;;;;;;;;;4864914;29;20480;-84
2022/01/27 17:06:02;;;;;;;20.75;9.55;;;;;;;;;;4864309;29;20045;-84
2022/01/27 17:08:30;;;;;;;9.77;7.60;;;;;;;;;;4860671;29;20064;-84
2022/01/27 17:10:58;;;;;;;14.35;8.35;;;;;;;;;;4865736;29;20049;-84
2022/01/27 17:13:26;;;;;;;14.02;7.25;;;;;;;;;;4844939;29;20058;-84
2022/01/27 17:15:55;;;;;;;15.70;10.18;;;;;;;;;;4865048;29;20420;-84
2022/01/27 17:18:23;;;;;;;14.30;8.88;;;;;;;;;;4865456;29;20696;-85
2022/01/27 17:20:52;;;;;;;10.65;7.78;;;;;;;;;;4846820;29;20803;-86
2022/01/27 17:23:20;;;;;;;17.77;13.38;;;;;;;;;;4845644;29;20080;-86
2022/01/27 17:25:48;;;;;;;10.50;7.95;;;;;;;;;;4859720;29;20556;-86
2022/01/27 17:28:17;;;;;;;12.13;9.48;;;;;;;;;;4863937;29;20049;-85
2022/01/27 17:30:45;;;;;;;15.00;11.70;;;;;;;;;;4863745;29;20048;-85
2022/01/27 17:33:13;;;;;;;25.92;9.15;;;;;;;;;;4847825;29;20049;-85
2022/01/27 17:35:42;;;;;;;19.30;10.80;;;;;;;;;;4861928;29;20512;-86
2022/01/27 17:38:10;;;;;;;19.65;9.13;;;;;;;;;;4844865;29;20051;-85
2022/01/27 17:40:45;;;;;;;15.88;9.52;;;;;;;;;;4843945;29;20046;-83
2022/01/27 17:43:25;;;;;;;17.38;9.88;;;;;;;;;;4844999;29;20053;-83
2022/01/27 17:45:54;;;;;;;17.75;10.00;;;;;;;;;;4828109;29;20049;-83
2022/01/27 17:48:22;;;;;;;22.23;12.80;;;;;;;;;;4813322;29;20042;-82
2022/01/27 17:50:50;;;;;;;15.95;12.40;;;;;;;;;;4841200;29;20512;-82
2022/01/27 17:53:18;;;;;;;12.05;9.75;;;;;;;;;;4844353;29;20070;-83
2022/01/27 17:55:46;;;;;;;16.10;11.15;;;;;;;;;;4828769;29;20046;-83
2022/01/27 17:58:15;;;;;;;16.52;10.02;;;;;;;;;;4825407;29;20061;-83
2022/01/27 18:00:43;;;;;;;14.25;12.20;;;;;;;;;;4827335;29;20462;-85
2022/01/27 18:03:11;;;;;;;17.77;10.20;;;;;;;;;;4829658;29;20046;-85
2022/01/27 18:05:39;;;;;;;14.15;9.43;;;;;;;;;;4827727;29;20891;-86
2022/01/27 18:08:08;;;;;;;21.67;10.02;;;;;;;;;;4825644;29;20053;-84
2022/01/27 18:10:37;;;;;;;10.48;8.10;;;;;;;;;;4817807;29;20053;-86
2022/01/27 18:13:11;;;;;;;16.17;12.63;;;;;;;;;;4840416;29;20057;-89
2022/01/27 18:15:47;;;;;;;12.27;10.15;;;;;;;;;;4842697;29;20634;-90
2022/01/27 18:18:19;;;;;;;15.00;10.85;;;;;;;;;;4822846;29;20061;-82
2022/01/27 18:21:06;;;;;;;24.13;12.48;;;;;;;;;;4846051;29;20045;-86
2022/01/27 18:23:42;;;;;;;21.52;9.80;;;;;;;;;;4835360;29;20046;-84
2022/01/27 18:26:11;;;;;;;19.77;12.07;;;;;;;;;;4795528;29;20526;-84
2022/01/27 18:28:42;;;;;;;11.63;9.32;;;;;;;;;;4834977;29;20509;-83
2022/01/27 18:31:15;;;;;;;14.90;9.95;;;;;;;;;;4841999;29;20854;-84
2022/01/27 18:33:54;;;;;;;14.15;10.95;;;;;;;;;;4841860;29;20392;-86
2022/01/27 18:36:25;;;;;;;20.85;12.48;;;;;;;;;;4813941;29;20042;-86
2022/01/27 18:38:55;;;;;;;13.10;11.63;;;;;;;;;;4849399;29;20538;-87
2022/01/27 18:41:26;;;;;;;13.10;10.57;;;;;;;;;;4841347;29;20049;-86
2022/01/27 18:43:54;;;;;;;19.10;11.15;;;;;;;;;;4819283;29;20075;-87
2022/01/27 18:46:23;;;;;;;10.30;8.20;;;;;;;;;;4846053;29;20052;-86
2022/01/27 18:48:56;;;;;;;17.27;9.65;;;;;;;;;;4842364;29;20068;-87
2022/01/27 18:51:28;;;;;;;10.57;8.23;;;;;;;;;;4828428;29;20401;-86
2022/01/27 18:54:00;;;;;;;13.43;10.80;;;;;;;;;;4831328;29;20064;-87
2022/01/27 18:56:29;;;;;;;14.35;9.55;;;;;;;;;;4846696;29;20045;-90
2022/01/27 18:59:00;;;;;;;11.43;8.88;;;;;;;;;;4828964;29;20068;-87
2022/01/27 19:01:30;;;;;;;8.68;7.68;;;;;;;;;;4821339;29;20419;-86
2022/01/27 19:04:01;;;;;;;11.20;7.88;;;;;;;;;;4843826;29;20057;-84
2022/01/27 19:06:33;;;;;;;11.77;10.57;;;;;;;;;;4844269;29;20049;-85
2022/01/27 19:09:03;;;;;;;14.15;10.40;;;;;;;;;;4844992;29;20420;-87
2022/01/27 19:11:31;;;;;;;7.93;6.07;;;;;;;;;;4840777;29;20484;-86
2022/01/27 19:14:04;;;;;;;8.18;6.20;;;;;;;;;;4829788;29;20058;-89
2022/01/27 19:16:35;;;;;;;7.88;5.68;;;;;;;;;;4821615;29;20057;-89
2022/01/27 19:19:14;;;;;;;11.93;6.32;;;;;;;;;;4809115;29;20061;-88
2022/01/27 19:21:52;;;;;;;8.52;7.70;;;;;;;;;;4804158;29;20049;-91
2022/01/27 19:24:30;;;;;;;9.30;7.63;;;;;;;;;;4799041;29;20476;-86
2022/01/27 19:27:04;;;;;;;10.88;7.70;;;;;;;;;;4840047;29;20056;-87
2022/01/27 19:30:28;;;;;;;8.00;7.20;;;;;;;;;;4831007;29;20045;-92
2022/01/27 19:33:01;;;;;;;9.32;8.07;;;;;;;;;;4836094;29;20060;-88
2022/01/27 19:35:36;;;;;;;9.85;8.85;;;;;;;;;;4829048;29;20052;-88
2022/01/27 19:38:09;;;;;;;8.93;5.68;;;;;;;;;;4816223;29;20054;-91
2022/01/27 19:40:42;;;;;;;5.53;4.65;;;;;;;;;;4838948;29;20049;-89
2022/01/27 19:43:19;;;;;;;16.17;8.43;;;;;;;;;;4844518;29;20057;-86
2022/01/27 19:45:56;;;;;;;7.65;6.75;;;;;;;;;;4840347;29;20492;-88
2022/01/27 19:48:24;;;;;;;11.90;6.72;;;;;;;;;;4836116;29;20038;-87
2022/01/27 19:50:52;;;;;;;9.48;6.43;;;;;;;;;;4839662;29;20049;-86
2022/01/27 19:53:20;;;;;;;8.95;7.78;;;;;;;;;;4846885;29;20045;-87
2022/01/27 19:55:48;;;;;;;7.22;4.25;;;;;;;;;;4847271;29;20467;-86
2022/01/27 19:58:17;;;;;;;8.07;7.28;;;;;;;;;;4845359;29;20053;-87
2022/01/27 20:00:46;;;;;;;7.47;5.75;;;;;;;;;;4832583;29;20054;-87
2022/01/27 20:03:18;;;;;;;6.55;5.38;;;;;;;;;;4848149;29;20048;-85
2022/01/27 20:05:46;;;;;;;7.50;6.75;;;;;;;;;;4799453;29;20061;-86
2022/01/27 20:08:14;;;;;;;7.53;5.00;;;;;;;;;;4815641;29;20076;-87
2022/01/27 20:10:42;;;;;;;8.38;5.45;;;;;;;;;;4845617;29;20061;-87
2022/01/27 20:13:10;;;;;;;27.92;6.65;;;;;;;;;;4840913;29;20060;-86
2022/01/27 20:15:43;;;;;;;8.13;5.28;;;;;;;;;;4821981;29;20053;-86
2022/01/27 20:18:11;;;;;;;10.38;6.40;;;;;;;;;;4811853;29;20061;-88
2022/01/27 20:20:39;;;;;;;7.55;4.15;;;;;;;;;;4807153;29;20058;-85
2022/01/27 20:23:09;;;;;;;7.45;5.70;;;;;;;;;;4837433;29;20050;-86
2022/01/27 20:25:38;;;;;;;5.80;4.88;;;;;;;;;;4833373;29;20400;-86
2022/01/27 20:28:06;;;;;;;7.95;5.53;;;;;;;;;;4847882;29;20765;-86
2022/01/27 20:30:34;;;;;;;5.22;4.00;;;;;;;;;;4818791;29;20065;-87
2022/01/27 20:33:02;;;;;;;8.48;5.78;;;;;;;;;;4828484;29;20515;-87
2022/01/27 20:35:31;;;;;;;5.90;5.22;;;;;;;;;;4814481;29;20053;-89
2022/01/27 20:38:04;;;;;;;7.65;4.88;;;;;;;;;;4815801;29;20049;-87
2022/01/27 20:40:39;;;;;;;8.93;5.25;;;;;;;;;;4837156;29;20042;-85
2022/01/27 20:43:13;;;;;;;8.35;5.10;;;;;;;;;;4816403;29;20597;-85
2022/01/27 20:45:51;;;;;;;8.20;5.43;;;;;;;;;;4831610;29;20050;-86
2022/01/27 20:48:22;;;;;;;6.28;5.65;;;;;;;;;;4848868;29;20463;-85
2022/01/27 20:50:58;;;;;;;7.75;4.53;;;;;;;;;;4830874;29;20053;-85
2022/01/27 20:53:27;;;;;;;8.07;5.53;;;;;;;;;;4840854;29;20414;-84
2022/01/27 20:55:58;;;;;;;7.70;4.03;;;;;;;;;;4817466;29;20057;-85
2022/01/27 20:58:27;;;;;;;5.97;5.38;;;;;;;;;;4815790;29;20076;-86
2022/01/27 21:00:56;;;;;;;4.97;3.55;;;;;;;;;;4837356;29;20053;-84
2022/01/27 21:03:26;;;;;;;5.10;4.38;;;;;;;;;;4826701;29;20068;-85
2022/01/27 21:05:54;;;;;;;4.70;4.15;;;;;;;;;;4851509;29;20689;-86
2022/01/27 21:08:28;;;;;;;6.65;5.82;;;;;;;;;;4837025;29;20171;-84
2022/01/27 21:10:58;;;;;;;7.43;4.63;;;;;;;;;;4850700;29;20491;-81
2022/01/27 21:13:28;;;;;;;5.20;4.53;;;;;;;;;;4832064;29;20054;-86
2022/01/27 21:16:07;;;;;;;6.68;4.57;;;;;;;;;;4846844;29;20049;-85
2022/01/27 21:18:42;;;;;;;8.10;7.30;;;;;;;;;;4837844;29;20054;-85
2022/01/27 21:21:10;;;;;;;5.05;3.88;;;;;;;;;;4823211;29;20057;-85
2022/01/27 21:23:42;;;;;;;5.07;4.07;;;;;;;;;;4850734;29;20058;-87
2022/01/27 21:26:18;;;;;;;5.93;3.85;;;;;;;;;;4821637;29;20060;-84
2022/01/27 21:29:14;;;;;;;5.90;4.20;;;;;;;;;;4823942;29;20056;-87
2022/01/27 21:32:01;;;;;;;5.32;4.32;;;;;;;;;;4845883;29;20041;-87
2022/01/27 21:34:55;;;;;;;9.45;7.78;;;;;;;;;;4826805;29;20065;-84
2022/01/27 21:37:26;;;;;;;3.90;3.60;;;;;;;;;;4845426;29;20049;-84
2022/01/27 21:40:07;;;;;;;3.85;3.28;;;;;;;;;;4844669;29;20456;-86